createdAt,value
2018-03-29T00:01:20.715Z,39.53
2018-03-29T00:03:48.333Z,40.93
2018-03-29T00:06:16.730Z,40.90
2018-03-29T00:08:44.348Z,40.57
2018-03-29T00:11:12.002Z,42.50
2018-03-29T00:13:39.632Z,38.10
2018-03-29T00:16:07.270Z,41.73
2018-03-29T00:18:34.861Z,43.10
2018-03-29T00:21:03.257Z,43.57
2018-03-29T00:23:30.878Z,45.50
2018-03-29T00:25:58.553Z,46.50
2018-03-29T00:28:26.167Z,48.87
2018-03-29T00:30:54.566Z,46.97
2018-03-29T00:33:22.162Z,46.33
2018-03-29T00:35:49.783Z,49.33
2018-03-29T00:38:17.395Z,49.47
2018-03-29T00:40:45.017Z,51.20
2018-03-29T00:43:12.620Z,46.23
2018-03-29T00:45:40.227Z,50.80
2018-03-29T00:48:07.839Z,48.50
2018-03-29T00:50:35.474Z,50.17
2018-03-29T00:53:14.928Z,51.77
2018-03-29T00:55:42.566Z,48.00
2018-03-29T00:58:10.158Z,49.03
2018-03-29T01:00:37.760Z,47.90
2018-03-29T01:03:05.404Z,51.17
2018-03-29T01:05:33.776Z,47.17
2018-03-29T01:08:02.177Z,49.00
2018-03-29T01:10:29.775Z,48.80
2018-03-29T01:12:57.411Z,46.67
2018-03-29T01:15:25.029Z,49.57
2018-03-29T01:17:53.443Z,80.00
2018-03-29T01:20:21.043Z,54.20
2018-03-29T01:22:48.665Z,46.90
2018-03-29T01:25:16.278Z,45.27
2018-03-29T01:27:43.899Z,49.73
2018-03-29T01:30:11.531Z,47.00
2018-03-29T01:32:39.149Z,54.23
2018-03-29T01:35:06.757Z,50.70
2018-03-29T01:37:34.363Z,56.00
2018-03-29T01:40:02.015Z,53.80
2018-03-29T01:42:29.624Z,55.97
2018-03-29T01:44:58.159Z,48.70
2018-03-29T01:47:25.756Z,46.03
2018-03-29T01:49:54.135Z,47.40
2018-03-29T01:52:22.544Z,50.20
2018-03-29T01:54:50.133Z,49.57
2018-03-29T01:57:17.752Z,49.00
2018-03-29T01:59:45.361Z,47.90
2018-03-29T02:02:13.012Z,53.37
2018-03-29T02:04:40.600Z,49.20
2018-03-29T02:07:08.228Z,48.10
2018-03-29T02:09:35.847Z,53.10
2018-03-29T02:12:03.538Z,48.10
2018-03-29T02:14:31.155Z,42.87
2018-03-29T02:16:59.520Z,45.83
2018-03-29T02:19:27.137Z,44.90
2018-03-29T02:21:54.741Z,44.43
2018-03-29T02:24:22.357Z,40.87
2018-03-29T02:26:49.970Z,43.30
2018-03-29T02:29:18.376Z,36.23
2018-03-29T02:31:45.966Z,31.73
2018-03-29T02:34:13.592Z,33.03
2018-03-29T02:36:41.208Z,28.00
2018-03-29T02:39:08.825Z,21.17
2018-03-29T02:41:36.410Z,26.23
2018-03-29T02:44:04.013Z,19.20
2018-03-29T02:46:32.418Z,20.33
2018-03-29T02:49:00.038Z,19.40
2018-03-29T02:51:28.442Z,17.20
2018-03-29T02:53:56.053Z,14.90
2018-03-29T02:56:23.706Z,14.50
2018-03-29T02:58:51.316Z,12.93
2018-03-29T03:01:19.719Z,13.57
2018-03-29T03:03:47.333Z,11.33
2018-03-29T03:06:14.965Z,11.27
2018-03-29T03:08:42.580Z,13.40
2018-03-29T03:11:10.954Z,11.13
2018-03-29T03:13:39.342Z,10.60
2018-03-29T03:16:06.953Z,7.90
2018-03-29T03:18:35.354Z,11.20
2018-03-29T03:21:02.944Z,9.27
2018-03-29T03:23:30.568Z,9.47
2018-03-29T03:25:58.162Z,11.73
2018-03-29T03:28:25.805Z,7.67
2018-03-29T03:30:53.431Z,11.87
2018-03-29T03:33:21.085Z,10.87
2018-03-29T03:35:48.689Z,12.67
2018-03-29T03:38:17.099Z,9.47
2018-03-29T03:40:44.750Z,7.40
2018-03-29T03:43:12.345Z,8.50
2018-03-29T03:45:39.967Z,12.83
2018-03-29T03:48:07.575Z,10.40
2018-03-29T03:50:35.209Z,10.63
2018-03-29T03:53:02.885Z,14.53
2018-03-29T03:55:30.661Z,11.10
2018-03-29T03:57:58.259Z,11.30
2018-03-29T04:00:26.640Z,8.73
2018-03-29T04:02:54.989Z,10.10
2018-03-29T04:05:22.620Z,8.07
2018-03-29T04:07:50.237Z,13.77
2018-03-29T04:10:17.868Z,10.43
2018-03-29T04:12:45.491Z,10.77
2018-03-29T04:15:13.097Z,10.53
2018-03-29T04:17:41.503Z,9.87
2018-03-29T04:20:09.109Z,6.57
2018-03-29T04:22:36.715Z,7.87
2018-03-29T04:25:05.066Z,8.60
2018-03-29T04:27:32.703Z,10.10
2018-03-29T04:30:00.671Z,4.53
2018-03-29T04:32:28.330Z,7.30
2018-03-29T04:34:55.927Z,7.20
2018-03-29T04:37:24.319Z,5.50
2018-03-29T04:39:52.670Z,5.53
2018-03-29T04:42:20.253Z,6.90
2018-03-29T04:44:48.616Z,7.67
2018-03-29T04:47:16.212Z,7.53
2018-03-29T04:49:43.843Z,6.90
2018-03-29T04:52:12.197Z,9.23
2018-03-29T04:54:39.802Z,6.10
2018-03-29T04:57:07.380Z,9.30
2018-03-29T04:59:34.996Z,5.33
2018-03-29T05:02:03.360Z,5.67
2018-03-29T05:04:30.986Z,7.10
2018-03-29T05:06:58.588Z,6.43
2018-03-29T05:09:26.979Z,4.97
2018-03-29T05:11:55.357Z,4.07
2018-03-29T05:14:22.961Z,5.13
2018-03-29T05:16:50.578Z,3.87
2018-03-29T05:19:18.926Z,3.23
2018-03-29T05:21:46.525Z,4.37
2018-03-29T05:24:14.117Z,3.20
2018-03-29T05:26:41.738Z,3.37
2018-03-29T05:29:10.089Z,3.70
2018-03-29T05:31:37.704Z,2.70
2018-03-29T05:34:05.337Z,3.30
2018-03-29T05:36:32.960Z,2.97
2018-03-29T05:39:00.711Z,3.40
2018-03-29T05:41:28.330Z,3.17
2018-03-29T05:43:55.952Z,4.17
2018-03-29T05:46:23.548Z,3.33
2018-03-29T05:48:51.160Z,2.63
2018-03-29T05:51:18.761Z,2.97
2018-03-29T05:53:46.360Z,4.00
2018-03-29T05:56:13.958Z,4.10
2018-03-29T05:58:42.348Z,3.23
2018-03-29T06:01:10.690Z,4.10
2018-03-29T06:03:38.373Z,4.13
2018-03-29T06:06:06.748Z,8.50
2018-03-29T06:08:34.351Z,4.57
2018-03-29T06:11:01.993Z,4.50
2018-03-29T06:13:29.559Z,5.00
2018-03-29T06:16:02.826Z,6.30
2018-03-29T06:18:32.530Z,5.70
2018-03-29T06:21:00.517Z,6.37
2018-03-29T06:23:28.918Z,3.37
2018-03-29T06:25:56.530Z,4.60
2018-03-29T06:28:24.115Z,3.30
2018-03-29T06:30:52.485Z,4.03
2018-03-29T06:33:20.843Z,5.00
2018-03-29T06:35:48.450Z,3.27
2018-03-29T06:38:16.032Z,2.63
2018-03-29T06:40:43.663Z,3.90
2018-03-29T06:43:11.279Z,3.00
2018-03-29T06:45:38.860Z,3.40
2018-03-29T06:48:06.453Z,3.40
2018-03-29T06:50:34.029Z,2.93
2018-03-29T06:53:01.646Z,3.77
2018-03-29T06:55:30.015Z,3.20
2018-03-29T06:57:58.446Z,3.90
2018-03-29T07:00:26.045Z,2.60
2018-03-29T07:02:53.680Z,4.27
2018-03-29T07:05:21.271Z,3.00
2018-03-29T07:07:48.884Z,4.20
2018-03-29T07:10:16.486Z,3.20
2018-03-29T07:12:44.131Z,2.60
2018-03-29T07:15:11.713Z,3.83
2018-03-29T07:17:39.290Z,3.53
2018-03-29T07:20:07.660Z,2.70
2018-03-29T07:22:36.027Z,2.70
2018-03-29T07:25:04.400Z,2.47
2018-03-29T07:27:31.978Z,5.10
2018-03-29T07:30:00.362Z,3.50
2018-03-29T07:32:27.960Z,2.03
2018-03-29T07:34:55.584Z,2.30
2018-03-29T07:37:23.188Z,3.30
2018-03-29T07:39:50.811Z,2.17
2018-03-29T07:42:18.408Z,3.17
2018-03-29T07:44:46.036Z,2.00
2018-03-29T07:47:13.720Z,3.10
2018-03-29T07:49:41.349Z,2.53
2018-03-29T07:52:09.740Z,3.43
2018-03-29T07:54:39.471Z,3.90
2018-03-29T07:57:07.088Z,3.43
2018-03-29T07:59:35.429Z,2.30
2018-03-29T08:02:03.017Z,2.80
2018-03-29T08:04:31.366Z,2.50
2018-03-29T08:06:58.984Z,2.10
2018-03-29T08:09:26.554Z,2.03
2018-03-29T08:11:54.163Z,3.00
2018-03-29T08:14:21.749Z,1.90
2018-03-29T08:16:49.341Z,3.90
2018-03-29T08:19:16.927Z,2.73
2018-03-29T08:21:44.579Z,3.10
2018-03-29T08:24:14.625Z,1.90
2018-03-29T08:26:42.244Z,3.00
2018-03-29T08:29:09.863Z,3.97
2018-03-29T08:31:37.433Z,3.07
2018-03-29T08:34:05.033Z,2.70
2018-03-29T08:36:32.599Z,3.57
2018-03-29T08:39:00.194Z,2.70
2018-03-29T08:41:28.547Z,1.93
2018-03-29T08:43:56.138Z,3.33
2018-03-29T08:46:24.494Z,2.80
2018-03-29T08:48:52.841Z,2.83
2018-03-29T08:51:20.462Z,2.73
2018-03-29T08:53:48.055Z,3.57
2018-03-29T08:56:15.665Z,4.77
2018-03-29T08:58:44.005Z,2.60
2018-03-29T09:01:11.615Z,3.53
2018-03-29T09:03:39.197Z,3.00
2018-03-29T09:06:06.785Z,3.10
2018-03-29T09:08:34.356Z,3.57
2018-03-29T09:11:01.996Z,2.50
2018-03-29T09:13:29.576Z,3.43
2018-03-29T09:15:57.145Z,2.80
2018-03-29T09:18:24.741Z,2.57
2018-03-29T09:20:52.319Z,2.80
2018-03-29T09:23:19.942Z,3.03
2018-03-29T09:25:48.299Z,3.13
2018-03-29T09:28:16.670Z,3.93
2018-03-29T09:30:44.244Z,2.93
2018-03-29T09:33:12.601Z,3.70
2018-03-29T09:35:40.175Z,2.43
2018-03-29T09:38:07.781Z,4.30
2018-03-29T09:40:35.352Z,4.03
2018-03-29T09:43:03.010Z,4.30
2018-03-29T09:45:30.630Z,3.93
2018-03-29T09:47:59.012Z,4.17
2018-03-29T09:50:26.629Z,2.90
2018-03-29T09:52:54.219Z,3.70
2018-03-29T09:55:22.600Z,4.13
2018-03-29T09:57:50.941Z,4.33
2018-03-29T10:00:24.369Z,3.70
2018-03-29T10:02:55.574Z,4.80
2018-03-29T10:05:28.935Z,3.93
2018-03-29T10:07:56.512Z,4.30
2018-03-29T10:10:24.108Z,3.03
2018-03-29T10:12:51.685Z,4.33
2018-03-29T10:15:20.108Z,3.43
2018-03-29T10:17:47.699Z,3.50
2018-03-29T10:20:15.292Z,4.47
2018-03-29T10:22:43.675Z,4.50
2018-03-29T10:25:11.249Z,2.87
2018-03-29T10:27:38.864Z,3.33
2018-03-29T10:30:06.457Z,3.10
2018-03-29T10:32:34.073Z,3.67
2018-03-29T10:35:01.657Z,3.60
2018-03-29T10:37:30.064Z,3.00
2018-03-29T10:39:57.674Z,3.63
2018-03-29T10:42:25.301Z,2.93
2018-03-29T10:44:52.880Z,4.13
2018-03-29T10:47:20.461Z,3.63
2018-03-29T10:49:48.053Z,3.77
2018-03-29T10:52:15.649Z,3.53
2018-03-29T10:54:43.245Z,3.33
2018-03-29T10:57:10.830Z,3.50
2018-03-29T10:59:39.202Z,3.27
2018-03-29T11:02:07.540Z,4.00
2018-03-29T11:04:35.175Z,3.93
2018-03-29T11:07:02.756Z,3.50
2018-03-29T11:09:30.361Z,2.83
2018-03-29T11:11:58.748Z,3.17
2018-03-29T11:14:26.335Z,3.53
2018-03-29T11:16:53.961Z,2.93
2018-03-29T11:19:21.539Z,3.80
2018-03-29T11:21:49.127Z,2.80
2018-03-29T11:24:16.706Z,2.93
2018-03-29T11:26:44.312Z,2.90
2018-03-29T11:29:11.903Z,2.50
2018-03-29T11:31:39.528Z,2.57
2018-03-29T11:34:07.106Z,2.93
2018-03-29T11:36:34.720Z,2.77
2018-03-29T11:39:03.089Z,3.53
2018-03-29T11:41:31.455Z,3.80
2018-03-29T11:43:59.080Z,3.33
2018-03-29T11:46:26.667Z,2.70
2018-03-29T11:48:54.281Z,3.10
2018-03-29T11:51:21.858Z,4.13
2018-03-29T11:53:49.447Z,3.40
2018-03-29T11:56:17.031Z,3.20
2018-03-29T11:58:45.422Z,4.20
2018-03-29T12:01:13.779Z,4.23
2018-03-29T12:03:41.371Z,3.83
2018-03-29T12:06:08.940Z,3.30
2018-03-29T12:08:36.552Z,3.57
2018-03-29T12:11:04.143Z,3.10
2018-03-29T12:13:31.745Z,3.57
2018-03-29T12:15:59.386Z,4.30
2018-03-29T12:18:26.984Z,4.70
2018-03-29T12:20:54.606Z,3.70
2018-03-29T12:23:22.207Z,4.10
2018-03-29T12:25:49.815Z,4.70
2018-03-29T12:28:17.406Z,5.07
2018-03-29T12:30:45.006Z,5.60
2018-03-29T12:33:13.349Z,4.10
2018-03-29T12:35:40.940Z,5.23
2018-03-29T12:38:08.504Z,4.57
2018-03-29T12:40:36.900Z,5.77
2018-03-29T12:43:04.497Z,5.27
2018-03-29T12:45:32.092Z,4.93
2018-03-29T12:47:59.693Z,5.70
2018-03-29T12:50:27.341Z,5.90
2018-03-29T12:52:54.882Z,5.60
2018-03-29T12:55:35.169Z,6.70
2018-03-29T12:58:11.099Z,5.80
2018-03-29T13:00:39.435Z,6.50
2018-03-29T13:03:07.158Z,4.40
2018-03-29T13:05:34.744Z,4.97
2018-03-29T13:08:02.381Z,6.67
2018-03-29T13:10:29.960Z,5.73
2018-03-29T13:12:57.590Z,7.70
2018-03-29T13:15:25.161Z,4.53
2018-03-29T13:17:52.778Z,6.20
2018-03-29T13:20:20.392Z,6.90
2018-03-29T13:22:47.970Z,8.90
2018-03-29T13:25:15.702Z,7.57
2018-03-29T13:27:43.305Z,6.10
2018-03-29T13:30:10.932Z,8.07
2018-03-29T13:32:38.516Z,8.47
2018-03-29T13:35:06.142Z,8.63
2018-03-29T13:37:33.717Z,5.87
2018-03-29T13:40:01.367Z,9.20
2018-03-29T13:42:28.966Z,9.83
2018-03-29T13:44:56.627Z,10.10
2018-03-29T13:47:24.218Z,9.73
2018-03-29T13:49:52.600Z,10.60
2018-03-29T13:52:20.973Z,10.60
2018-03-29T13:54:49.347Z,10.07
2018-03-29T13:57:17.688Z,7.53
2018-03-29T13:59:45.285Z,7.97
2018-03-29T14:02:13.641Z,8.20
2018-03-29T14:04:41.283Z,8.50
2018-03-29T14:07:08.865Z,7.93
2018-03-29T14:09:36.436Z,8.60
2018-03-29T14:12:04.826Z,7.47
2018-03-29T14:14:33.174Z,8.93
2018-03-29T14:17:00.787Z,9.03
2018-03-29T14:19:28.383Z,10.70
2018-03-29T14:21:56.010Z,10.00
2018-03-29T14:24:23.602Z,9.73
2018-03-29T14:26:51.209Z,11.23
2018-03-29T14:29:18.789Z,9.83
2018-03-29T14:31:46.414Z,10.40
2018-03-29T14:34:14.789Z,9.50
2018-03-29T14:36:42.398Z,8.33
2018-03-29T14:39:10.013Z,10.97
2018-03-29T14:41:37.625Z,10.10
2018-03-29T14:44:05.242Z,10.37
2018-03-29T14:46:32.828Z,8.80
2018-03-29T14:49:00.444Z,9.07
2018-03-29T14:51:28.784Z,8.13
2018-03-29T14:53:56.382Z,8.60
2018-03-29T14:56:24.726Z,9.43
2018-03-29T14:58:52.363Z,9.17
2018-03-29T15:01:19.935Z,9.10
2018-03-29T15:03:47.523Z,9.93
2018-03-29T15:06:15.147Z,10.73
2018-03-29T15:08:42.729Z,10.43
2018-03-29T15:11:10.340Z,10.07
2018-03-29T15:13:37.940Z,9.23
2018-03-29T15:16:05.564Z,10.53
2018-03-29T15:18:33.166Z,10.70
2018-03-29T15:21:00.784Z,9.30
2018-03-29T15:23:28.358Z,12.17
2018-03-29T15:25:56.057Z,11.17
2018-03-29T15:28:23.765Z,12.70
2018-03-29T15:30:51.355Z,11.57
2018-03-29T15:33:18.975Z,12.60
2018-03-29T15:35:47.320Z,10.47
2018-03-29T15:38:14.932Z,8.13
2018-03-29T15:40:42.518Z,15.10
2018-03-29T15:43:10.132Z,12.90
2018-03-29T15:45:38.469Z,12.93
2018-03-29T15:48:06.175Z,10.97
2018-03-29T15:50:33.777Z,12.83
2018-03-29T15:53:01.399Z,12.20
2018-03-29T15:55:28.976Z,11.70
2018-03-29T15:57:56.607Z,12.53
2018-03-29T16:00:24.963Z,11.23
2018-03-29T16:02:52.543Z,11.30
2018-03-29T16:05:21.004Z,10.90
2018-03-29T16:07:48.599Z,11.93
2018-03-29T16:10:16.231Z,11.00
2018-03-29T16:12:44.695Z,11.00
2018-03-29T16:15:13.064Z,9.07
2018-03-29T16:17:40.655Z,10.87
2018-03-29T16:20:09.263Z,11.90
2018-03-29T16:22:36.862Z,11.57
2018-03-29T16:25:04.544Z,10.77
2018-03-29T16:27:32.144Z,11.47
2018-03-29T16:29:59.759Z,14.90
2018-03-29T16:32:27.338Z,11.43
2018-03-29T16:34:55.716Z,10.60
2018-03-29T16:37:24.103Z,10.27
2018-03-29T16:39:52.440Z,10.00
2018-03-29T16:42:20.052Z,12.43
2018-03-29T16:44:47.642Z,13.97
2018-03-29T16:47:15.242Z,17.67
2018-03-29T16:49:43.601Z,18.77
2018-03-29T16:52:11.227Z,11.33
2018-03-29T16:54:38.992Z,14.27
2018-03-29T16:57:06.564Z,11.13
2018-03-29T16:59:34.159Z,13.77
2018-03-29T17:02:01.777Z,14.90
2018-03-29T17:04:29.418Z,15.67
2018-03-29T17:06:57.020Z,17.20
2018-03-29T17:09:24.644Z,15.23
2018-03-29T17:11:52.227Z,14.53
2018-03-29T17:14:19.827Z,12.13
2018-03-29T17:16:48.186Z,13.67
2018-03-29T17:19:15.812Z,13.53
2018-03-29T17:21:43.394Z,20.93
2018-03-29T17:24:11.006Z,13.53
2018-03-29T17:26:38.584Z,14.50
2018-03-29T17:29:06.203Z,13.43
2018-03-29T17:31:34.555Z,13.70
2018-03-29T17:34:02.170Z,13.30
2018-03-29T17:36:29.792Z,12.47
2018-03-29T17:38:57.412Z,12.50
2018-03-29T17:41:25.051Z,13.20
2018-03-29T17:43:52.649Z,12.30
2018-03-29T17:46:20.268Z,12.83
2018-03-29T17:48:47.849Z,13.00
2018-03-29T17:51:15.459Z,11.60
2018-03-29T17:53:43.818Z,14.00
2018-03-29T17:56:11.439Z,14.60
2018-03-29T17:58:39.030Z,27.70
2018-03-29T18:01:06.666Z,31.10
2018-03-29T18:03:34.260Z,18.80
2018-03-29T18:06:01.850Z,17.63
2018-03-29T18:08:31.143Z,14.57
2018-03-29T18:10:59.504Z,14.30
2018-03-29T18:13:27.896Z,21.70
2018-03-29T18:15:56.241Z,19.80
2018-03-29T18:18:23.854Z,15.00
2018-03-29T18:20:51.487Z,14.80
2018-03-29T18:23:19.892Z,14.77
2018-03-29T18:25:47.472Z,17.13
2018-03-29T18:28:15.083Z,21.07
2018-03-29T18:30:43.431Z,15.40
2018-03-29T18:33:11.032Z,13.70
2018-03-29T18:35:39.411Z,16.87
2018-03-29T18:38:07.779Z,19.77
2018-03-29T18:40:36.144Z,15.60
2018-03-29T18:43:03.726Z,17.80
2018-03-29T18:45:32.090Z,14.83
2018-03-29T18:47:59.685Z,13.87
2018-03-29T18:50:27.307Z,15.20
2018-03-29T18:52:54.895Z,14.60
2018-03-29T18:55:22.482Z,13.50
2018-03-29T18:57:50.848Z,14.60
2018-03-29T19:00:19.193Z,13.07
2018-03-29T19:02:46.809Z,12.27
2018-03-29T19:05:14.410Z,12.83
2018-03-29T19:07:42.017Z,16.73
2018-03-29T19:10:13.243Z,13.17
2018-03-29T19:12:40.886Z,13.17
2018-03-29T19:15:08.476Z,13.40
2018-03-29T19:17:36.816Z,11.00
2018-03-29T19:20:04.420Z,10.47
2018-03-29T19:22:32.764Z,12.70
2018-03-29T19:25:00.636Z,14.10
2018-03-29T19:27:28.218Z,10.00
2018-03-29T19:29:56.580Z,13.30
2018-03-29T19:32:24.178Z,11.70
2018-03-29T19:34:51.799Z,9.97
2018-03-29T19:37:19.396Z,11.33
2018-03-29T19:39:46.991Z,8.47
2018-03-29T19:42:14.583Z,8.90
2018-03-29T19:44:42.951Z,8.33
2018-03-29T19:47:10.520Z,9.33
2018-03-29T19:49:38.886Z,11.40
2018-03-29T19:52:07.279Z,9.47
2018-03-29T19:54:35.624Z,9.30
2018-03-29T19:57:03.239Z,9.37
2018-03-29T19:59:30.835Z,9.80
2018-03-29T20:01:58.462Z,10.80
2018-03-29T20:04:26.107Z,9.83
2018-03-29T20:06:54.496Z,10.63
2018-03-29T20:09:22.073Z,9.40
2018-03-29T20:11:49.664Z,9.53
2018-03-29T20:14:17.260Z,11.33
2018-03-29T20:16:45.653Z,11.17
2018-03-29T20:19:13.998Z,11.07
2018-03-29T20:21:41.611Z,11.37
2018-03-29T20:24:09.201Z,11.80
2018-03-29T20:26:36.836Z,15.07
2018-03-29T20:29:04.427Z,13.33
2018-03-29T20:31:32.013Z,15.07
2018-03-29T20:34:00.682Z,15.13
2018-03-29T20:36:28.279Z,14.97
2018-03-29T20:38:55.875Z,17.00
2018-03-29T20:41:23.455Z,15.83
2018-03-29T20:43:51.076Z,16.00
2018-03-29T20:46:18.652Z,15.73
2018-03-29T20:48:46.248Z,18.00
2018-03-29T20:51:14.604Z,22.30
2018-03-29T20:53:42.226Z,19.17
2018-03-29T20:56:09.989Z,16.30
2018-03-29T20:58:37.589Z,15.10
2018-03-29T21:01:05.181Z,16.63
2018-03-29T21:03:32.786Z,16.23
2018-03-29T21:06:00.382Z,15.37
2018-03-29T21:08:27.993Z,17.20
2018-03-29T21:10:55.614Z,17.23
2018-03-29T21:13:23.196Z,18.23
2018-03-29T21:15:50.780Z,16.47
2018-03-29T21:18:18.357Z,16.77
2018-03-29T21:20:45.972Z,16.13
2018-03-29T21:23:13.575Z,16.63
2018-03-29T21:25:41.194Z,14.37
2018-03-29T21:28:08.796Z,15.87
2018-03-29T21:30:36.399Z,18.93
2018-03-29T21:33:04.756Z,18.70
2018-03-29T21:35:32.377Z,19.20
2018-03-29T21:37:59.976Z,17.63
2018-03-29T21:40:28.340Z,19.33
2018-03-29T21:42:56.720Z,18.67
2018-03-29T21:45:24.313Z,19.47
2018-03-29T21:47:51.889Z,19.80
2018-03-29T21:50:19.461Z,20.47
2018-03-29T21:52:47.102Z,19.60
2018-03-29T21:55:14.681Z,20.90
2018-03-29T21:57:43.138Z,19.70
2018-03-29T22:00:10.731Z,19.50
2018-03-29T22:02:38.369Z,18.33
2018-03-29T22:05:05.965Z,19.50
2018-03-29T22:07:33.579Z,18.70
2018-03-29T22:10:01.164Z,19.00
2018-03-29T22:12:28.800Z,18.03
2018-03-29T22:14:56.404Z,19.20
2018-03-29T22:17:23.994Z,19.40
2018-03-29T22:19:52.365Z,17.50
2018-03-29T22:22:19.948Z,19.80
2018-03-29T22:24:47.559Z,18.00
2018-03-29T22:27:15.151Z,19.17
2018-03-29T22:29:43.520Z,17.03
2018-03-29T22:32:11.130Z,21.03
2018-03-29T22:34:38.769Z,18.20
2018-03-29T22:37:06.366Z,18.50
2018-03-29T22:39:33.988Z,16.80
2018-03-29T22:42:01.583Z,18.10
2018-03-29T22:44:29.944Z,18.57
2018-03-29T22:46:57.549Z,17.50
2018-03-29T22:49:25.137Z,16.40
2018-03-29T22:51:53.528Z,20.20
2018-03-29T22:54:21.115Z,19.43
2018-03-29T22:56:48.718Z,18.80
2018-03-29T22:59:17.064Z,18.33
2018-03-29T23:01:44.670Z,19.67
2018-03-29T23:04:13.031Z,19.30
2018-03-29T23:06:41.435Z,19.73
2018-03-29T23:09:09.104Z,16.77
2018-03-29T23:11:36.691Z,17.30
2018-03-29T23:14:04.325Z,17.50
2018-03-29T23:16:31.924Z,18.23
2018-03-29T23:18:59.524Z,17.23
2018-03-29T23:21:27.877Z,17.17
2018-03-29T23:23:55.495Z,19.63
2018-03-29T23:26:23.072Z,16.90
2018-03-29T23:28:50.688Z,16.07
2018-03-29T23:31:18.289Z,16.57
2018-03-29T23:33:45.942Z,17.13
2018-03-29T23:36:13.538Z,16.73
2018-03-29T23:38:41.136Z,18.00
2018-03-29T23:41:08.752Z,17.73
2018-03-29T23:43:36.333Z,17.17
2018-03-29T23:46:04.727Z,16.60
2018-03-29T23:48:32.328Z,18.00
2018-03-29T23:50:59.948Z,19.87
2018-03-29T23:53:27.528Z,16.03
2018-03-29T23:55:55.160Z,17.37
2018-03-29T23:58:23.505Z,17.80
